createdAt,value
2022-08-29T00:00:50.963Z,3.10
2022-08-29T00:03:19.585Z,4.05
2022-08-29T00:05:50.131Z,3.92
2022-08-29T00:08:19.956Z,4.80
2022-08-29T00:10:48.636Z,3.88
2022-08-29T00:13:18.829Z,3.67
2022-08-29T00:15:47.451Z,2.97
2022-08-29T00:18:18.920Z,4.38
2022-08-29T00:20:48.367Z,3.42
2022-08-29T00:23:17.278Z,3.70
2022-08-29T00:25:46.306Z,3.92
2022-08-29T00:28:14.933Z,3.78
2022-08-29T00:30:46.849Z,3.80
2022-08-29T00:33:15.279Z,3.80
2022-08-29T00:35:46.422Z,3.55
2022-08-29T00:38:19.327Z,3.95
2022-08-29T00:40:52.389Z,4.03
2022-08-29T00:43:24.737Z,3.95
2022-08-29T00:46:04.239Z,3.85
2022-08-29T00:48:35.204Z,5.13
2022-08-29T00:51:08.881Z,4.22
2022-08-29T00:53:43.435Z,4.20
2022-08-29T00:56:17.865Z,5.25
2022-08-29T00:58:51.957Z,4.10
2022-08-29T01:01:23.362Z,3.53
2022-08-29T01:03:53.296Z,4.32
2022-08-29T01:06:23.995Z,3.95
2022-08-29T01:08:57.263Z,3.55
2022-08-29T01:11:46.940Z,3.50
2022-08-29T01:14:16.291Z,3.13
2022-08-29T01:16:51.205Z,3.25
2022-08-29T01:19:40.894Z,5.00
2022-08-29T01:22:23.749Z,4.57
2022-08-29T01:24:55.253Z,3.80
2022-08-29T01:27:28.889Z,3.20
2022-08-29T01:29:57.814Z,3.30
2022-08-29T01:32:26.456Z,3.47
2022-08-29T01:34:56.009Z,3.58
2022-08-29T01:37:25.528Z,3.72
2022-08-29T01:39:55.324Z,3.22
2022-08-29T01:42:25.703Z,2.85
2022-08-29T01:44:58.512Z,4.40
2022-08-29T01:47:34.444Z,4.10
2022-08-29T01:50:03.672Z,3.67
2022-08-29T01:52:32.688Z,3.55
2022-08-29T01:55:02.394Z,3.47
2022-08-29T01:57:30.966Z,3.72
2022-08-29T01:59:59.907Z,4.28
2022-08-29T02:02:30.734Z,3.95
2022-08-29T02:04:59.202Z,3.95
2022-08-29T02:07:29.520Z,3.53
2022-08-29T02:09:57.923Z,4.05
2022-08-29T02:12:27.980Z,3.45
2022-08-29T02:14:56.354Z,4.15
2022-08-29T02:17:24.831Z,4.25
2022-08-29T02:19:53.376Z,3.58
2022-08-29T02:22:21.942Z,4.80
2022-08-29T02:24:50.301Z,4.13
2022-08-29T02:27:18.735Z,4.80
2022-08-29T02:29:48.546Z,4.03
2022-08-29T02:32:18.270Z,4.30
2022-08-29T02:34:48.408Z,3.97
2022-08-29T02:37:18.021Z,3.70
2022-08-29T02:39:46.743Z,4.20
2022-08-29T02:42:15.114Z,3.92
2022-08-29T02:44:43.499Z,5.05
2022-08-29T02:47:14.532Z,3.42
2022-08-29T02:49:43.863Z,4.13
2022-08-29T02:52:12.685Z,4.30
2022-08-29T02:54:41.090Z,4.25
2022-08-29T02:57:09.769Z,3.72
2022-08-29T02:59:38.120Z,3.13
2022-08-29T03:02:07.652Z,4.40
2022-08-29T03:04:37.484Z,3.70
2022-08-29T03:07:06.392Z,3.03
2022-08-29T03:09:34.798Z,4.43
2022-08-29T03:12:03.342Z,3.78
2022-08-29T03:14:31.758Z,3.75
2022-08-29T03:17:00.190Z,3.50
2022-08-29T03:19:29.015Z,3.50
2022-08-29T03:21:58.790Z,2.65
2022-08-29T03:24:27.306Z,4.47
2022-08-29T03:26:56.860Z,3.40
2022-08-29T03:29:27.158Z,4.35
2022-08-29T03:31:58.492Z,4.10
2022-08-29T03:34:27.419Z,4.03
2022-08-29T03:36:56.236Z,2.92
2022-08-29T03:39:26.516Z,4.55
2022-08-29T03:41:54.910Z,3.97
2022-08-29T03:44:24.165Z,3.90
2022-08-29T03:46:52.589Z,4.07
2022-08-29T03:49:21.020Z,3.17
2022-08-29T03:51:50.095Z,3.97
2022-08-29T03:54:18.882Z,3.50
2022-08-29T03:56:48.840Z,3.25
2022-08-29T03:59:18.124Z,3.20
2022-08-29T04:01:48.610Z,3.25
2022-08-29T04:04:31.913Z,3.75
2022-08-29T04:07:01.523Z,4.03
2022-08-29T04:09:30.445Z,2.95
2022-08-29T04:12:00.944Z,4.10
2022-08-29T04:14:29.618Z,4.15
2022-08-29T04:16:58.175Z,4.32
2022-08-29T04:19:26.655Z,3.72
2022-08-29T04:21:55.040Z,3.58
2022-08-29T04:24:23.393Z,3.30
2022-08-29T04:26:52.423Z,4.18
2022-08-29T04:29:22.132Z,3.08
2022-08-29T04:31:50.478Z,3.85
2022-08-29T04:34:19.486Z,3.00
2022-08-29T04:36:48.684Z,4.03
2022-08-29T04:39:17.434Z,4.10
2022-08-29T04:41:45.810Z,3.13
2022-08-29T04:44:14.403Z,3.40
2022-08-29T04:46:44.159Z,3.67
2022-08-29T04:49:15.444Z,3.72
2022-08-29T04:51:43.838Z,3.17
2022-08-29T04:54:12.226Z,3.15
2022-08-29T04:56:47.194Z,2.58
2022-08-29T04:59:16.918Z,4.78
2022-08-29T05:01:48.175Z,3.10
2022-08-29T05:04:16.594Z,3.53
2022-08-29T05:06:45.418Z,3.03
2022-08-29T05:09:14.040Z,3.80
2022-08-29T05:11:42.826Z,2.72
2022-08-29T05:14:11.973Z,3.25
2022-08-29T05:16:40.860Z,2.65
2022-08-29T05:19:11.751Z,3.92
2022-08-29T05:21:41.904Z,3.00
2022-08-29T05:24:13.123Z,2.88
2022-08-29T05:26:45.081Z,3.08
2022-08-29T05:29:14.541Z,3.75
2022-08-29T05:31:44.393Z,3.88
2022-08-29T05:34:32.712Z,2.60
2022-08-29T05:37:05.821Z,3.17
2022-08-29T05:39:34.766Z,3.58
2022-08-29T05:42:04.364Z,3.65
2022-08-29T05:44:35.440Z,4.30
2022-08-29T05:47:05.513Z,4.07
2022-08-29T05:49:37.685Z,3.38
2022-08-29T05:52:07.580Z,5.13
2022-08-29T05:54:39.570Z,3.38
2022-08-29T05:57:09.446Z,3.85
2022-08-29T05:59:39.004Z,3.25
2022-08-29T06:02:10.144Z,4.47
2022-08-29T06:04:40.970Z,4.40
2022-08-29T06:07:11.053Z,3.55
2022-08-29T06:09:41.078Z,4.35
2022-08-29T06:12:11.399Z,4.72
2022-08-29T06:14:40.238Z,3.28
2022-08-29T06:17:09.750Z,2.80
2022-08-29T06:19:43.605Z,3.58
2022-08-29T06:22:12.684Z,4.32
2022-08-29T06:24:44.431Z,3.78
2022-08-29T06:27:14.346Z,3.83
2022-08-29T06:29:43.500Z,3.15
2022-08-29T06:32:12.363Z,4.75
2022-08-29T06:34:42.350Z,4.05
2022-08-29T06:37:11.034Z,3.30
2022-08-29T06:39:39.910Z,3.67
2022-08-29T06:42:08.780Z,3.10
2022-08-29T06:44:41.338Z,3.92
2022-08-29T06:47:13.304Z,4.78
2022-08-29T06:49:43.020Z,3.22
2022-08-29T06:52:11.511Z,3.88
2022-08-29T06:54:39.918Z,3.20
2022-08-29T06:57:08.368Z,3.60
2022-08-29T06:59:37.140Z,3.83
2022-08-29T07:02:05.940Z,4.00
2022-08-29T07:04:34.313Z,3.00
2022-08-29T07:07:05.409Z,2.85
2022-08-29T07:09:34.110Z,3.72
2022-08-29T07:12:03.015Z,3.75
2022-08-29T07:14:31.377Z,4.03
2022-08-29T07:17:00.791Z,3.60
2022-08-29T07:19:29.284Z,3.78
2022-08-29T07:22:00.493Z,3.20
2022-08-29T07:24:30.282Z,3.75
2022-08-29T07:26:58.711Z,3.60
2022-08-29T07:29:27.548Z,3.25
2022-08-29T07:31:56.030Z,4.28
2022-08-29T07:34:24.444Z,3.97
2022-08-29T07:36:53.147Z,3.03
2022-08-29T07:39:23.010Z,4.18
2022-08-29T07:41:53.176Z,3.83
2022-08-29T07:44:21.639Z,3.38
2022-08-29T07:46:50.369Z,3.78
2022-08-29T07:49:18.770Z,3.88
2022-08-29T07:51:47.952Z,3.08
2022-08-29T07:54:19.493Z,3.63
2022-08-29T07:56:52.917Z,3.53
2022-08-29T07:59:23.218Z,2.95
2022-08-29T08:01:51.996Z,2.97
2022-08-29T08:04:24.282Z,3.42
2022-08-29T08:06:53.154Z,3.50
2022-08-29T08:09:23.936Z,4.43
2022-08-29T08:11:52.384Z,3.25
2022-08-29T08:14:34.618Z,3.40
2022-08-29T08:17:03.974Z,4.10
2022-08-29T08:19:33.326Z,3.45
2022-08-29T08:22:02.315Z,4.43
2022-08-29T08:24:30.796Z,3.45
2022-08-29T08:26:59.214Z,3.72
2022-08-29T08:29:29.205Z,4.75
2022-08-29T08:31:59.930Z,4.10
2022-08-29T08:34:30.872Z,3.38
2022-08-29T08:36:59.283Z,3.35
2022-08-29T08:39:27.743Z,3.10
2022-08-29T08:42:03.308Z,2.42
2022-08-29T08:45:09.053Z,3.55
2022-08-29T08:47:43.584Z,3.10
2022-08-29T08:50:25.346Z,2.95
2022-08-29T08:52:59.359Z,2.53
2022-08-29T08:55:40.643Z,2.85
2022-08-29T08:58:28.777Z,3.20
2022-08-29T09:01:03.795Z,3.40
2022-08-29T09:04:13.170Z,3.00
2022-08-29T09:07:01.061Z,2.95
2022-08-29T09:09:46.601Z,2.75
2022-08-29T09:12:32.588Z,2.30
2022-08-29T09:15:13.435Z,3.38
2022-08-29T09:17:49.891Z,3.60
2022-08-29T09:20:25.011Z,3.42
2022-08-29T09:23:02.199Z,2.88
2022-08-29T09:25:31.876Z,3.22
2022-08-29T09:28:00.792Z,2.83
2022-08-29T09:30:34.098Z,3.50
2022-08-29T09:33:09.287Z,3.95
2022-08-29T09:35:41.210Z,3.15
2022-08-29T09:38:19.456Z,2.85
2022-08-29T09:40:55.858Z,2.60
2022-08-29T09:43:46.160Z,3.63
2022-08-29T09:46:23.483Z,3.05
2022-08-29T09:49:16.296Z,3.10
2022-08-29T09:51:47.930Z,3.13
2022-08-29T09:54:27.005Z,2.53
2022-08-29T09:57:00.016Z,1.73
2022-08-29T09:59:35.306Z,2.63
2022-08-29T10:02:24.440Z,2.25
2022-08-29T10:04:57.710Z,2.95
2022-08-29T10:07:30.982Z,3.88
2022-08-29T10:10:05.367Z,2.25
2022-08-29T10:12:48.958Z,3.10
2022-08-29T10:15:46.927Z,2.30
2022-08-29T10:18:28.764Z,2.10
2022-08-29T10:21:16.849Z,3.45
2022-08-29T10:24:15.929Z,3.15
2022-08-29T10:26:58.522Z,2.83
2022-08-29T10:29:48.156Z,2.42
2022-08-29T10:32:32.222Z,2.60
2022-08-29T10:35:14.492Z,2.72
2022-08-29T10:37:54.320Z,2.70
2022-08-29T10:40:30.688Z,2.25
2022-08-29T10:43:26.704Z,2.08
2022-08-29T10:46:13.149Z,1.85
2022-08-29T10:48:54.756Z,2.67
2022-08-29T10:51:32.583Z,1.73
2022-08-29T10:54:14.430Z,2.40
2022-08-29T10:56:47.562Z,2.15
2022-08-29T10:59:24.417Z,2.72
2022-08-29T11:02:01.395Z,2.05
2022-08-29T11:04:37.654Z,2.47
2022-08-29T11:07:13.162Z,1.90
2022-08-29T11:09:49.313Z,2.20
2022-08-29T11:12:24.967Z,2.15
2022-08-29T11:15:00.865Z,3.05
2022-08-29T11:17:38.491Z,2.08
2022-08-29T11:20:14.907Z,2.00
2022-08-29T11:22:51.623Z,1.85
2022-08-29T11:25:22.791Z,2.22
2022-08-29T11:28:01.919Z,3.10
2022-08-29T11:30:47.385Z,2.97
2022-08-29T11:33:38.896Z,2.63
2022-08-29T11:36:47.786Z,1.85
2022-08-29T11:39:50.063Z,2.97
2022-08-29T11:45:24.924Z,1.90
2022-08-29T11:48:31.552Z,2.42
2022-08-29T11:51:21.704Z,1.88
2022-08-29T11:53:50.152Z,2.38
2022-08-29T11:56:28.533Z,1.75
2022-08-29T11:59:00.217Z,2.17
2022-08-29T12:02:00.740Z,2.17
2022-08-29T12:04:54.817Z,2.13
2022-08-29T12:07:36.804Z,2.25
2022-08-29T12:10:11.701Z,2.00
2022-08-29T12:12:47.430Z,1.98
2022-08-29T12:15:55.402Z,1.65
2022-08-29T12:18:36.830Z,2.13
2022-08-29T12:21:49.595Z,2.03
2022-08-29T12:24:41.849Z,2.13
2022-08-29T12:28:00.747Z,2.33
2022-08-29T12:30:32.330Z,1.90
2022-08-29T12:33:13.289Z,1.65
2022-08-29T12:36:08.574Z,2.10
2022-08-29T12:38:53.413Z,1.92
2022-08-29T12:41:49.762Z,2.03
2022-08-29T12:44:26.587Z,1.88
2022-08-29T12:47:03.425Z,1.77
2022-08-29T12:49:42.688Z,1.80
2022-08-29T12:52:27.979Z,2.25
2022-08-29T12:54:59.341Z,2.20
2022-08-29T12:57:34.247Z,1.80
2022-08-29T13:00:12.255Z,2.38
2022-08-29T13:02:40.999Z,3.08
2022-08-29T13:05:28.360Z,3.85
2022-08-29T13:08:00.206Z,1.85
2022-08-29T13:10:30.075Z,2.45
2022-08-29T13:13:08.567Z,2.75
2022-08-29T13:15:37.651Z,1.73
2022-08-29T13:18:07.412Z,2.50
2022-08-29T13:21:03.368Z,2.10
2022-08-29T13:23:35.752Z,2.20
2022-08-29T13:26:09.170Z,1.95
2022-08-29T13:28:43.809Z,1.90
2022-08-29T13:31:36.326Z,2.03
2022-08-29T13:34:29.285Z,2.00
2022-08-29T13:37:10.504Z,2.47
2022-08-29T13:39:48.319Z,1.90
2022-08-29T13:42:34.636Z,2.40
2022-08-29T13:45:23.509Z,2.10
2022-08-29T13:48:20.495Z,1.92
2022-08-29T13:50:49.011Z,1.90
2022-08-29T13:53:19.276Z,2.17
2022-08-29T13:55:48.213Z,2.03
2022-08-29T13:58:20.049Z,2.28
2022-08-29T14:00:48.831Z,2.53
2022-08-29T14:03:18.669Z,2.88
2022-08-29T14:05:47.794Z,2.10
2022-08-29T14:08:16.304Z,2.22
2022-08-29T14:10:49.064Z,1.70
2022-08-29T14:13:17.896Z,2.13
2022-08-29T14:15:46.473Z,2.00
2022-08-29T14:18:16.256Z,2.08
2022-08-29T14:20:44.932Z,1.95
2022-08-29T14:23:13.331Z,2.95
2022-08-29T14:25:41.791Z,2.42
2022-08-29T14:28:18.479Z,2.88
2022-08-29T14:30:47.824Z,1.63
2022-08-29T14:33:23.481Z,2.35
2022-08-29T14:35:53.109Z,2.22
2022-08-29T14:38:25.005Z,2.00
2022-08-29T14:40:54.051Z,1.92
2022-08-29T14:43:23.937Z,1.80
2022-08-29T14:45:52.795Z,2.33
2022-08-29T14:48:22.245Z,1.80
2022-08-29T14:50:54.297Z,1.98
2022-08-29T14:53:23.477Z,2.10
2022-08-29T14:55:56.010Z,2.35
2022-08-29T14:58:26.512Z,1.92
2022-08-29T15:00:57.945Z,2.17
2022-08-29T15:03:26.735Z,2.10
2022-08-29T15:05:55.577Z,1.92
2022-08-29T15:08:25.307Z,1.83
2022-08-29T15:11:00.841Z,2.08
2022-08-29T15:13:33.070Z,2.08
2022-08-29T15:16:06.213Z,2.08
2022-08-29T15:19:31.152Z,2.25
2022-08-29T15:21:29.577Z,1.50
2022-08-29T15:23:58.360Z,2.85
2022-08-29T15:26:30.506Z,2.25
2022-08-29T15:29:09.289Z,2.58
2022-08-29T15:31:38.515Z,1.77
2022-08-29T15:34:11.559Z,1.63
2022-08-29T15:36:44.199Z,2.22
2022-08-29T15:39:13.565Z,2.25
2022-08-29T15:41:42.970Z,2.20
2022-08-29T15:44:13.336Z,1.85
2022-08-29T15:46:43.236Z,2.20
2022-08-29T15:49:21.825Z,2.42
2022-08-29T15:51:55.107Z,1.63
2022-08-29T15:54:25.858Z,1.77
2022-08-29T15:56:58.201Z,1.88
2022-08-29T15:59:54.412Z,2.22
2022-08-29T16:02:20.380Z,2.53
2022-08-29T16:04:54.773Z,2.10
2022-08-29T16:07:29.447Z,2.33
2022-08-29T16:10:01.492Z,2.28
2022-08-29T16:12:35.464Z,1.90
2022-08-29T16:15:10.278Z,1.77
2022-08-29T16:17:40.066Z,2.67
2022-08-29T16:20:12.533Z,2.05
2022-08-29T16:22:43.670Z,2.65
2022-08-29T16:25:15.357Z,2.75
2022-08-29T16:27:44.533Z,1.77
2022-08-29T16:30:17.279Z,1.70
2022-08-29T16:32:46.601Z,1.88
2022-08-29T16:35:16.978Z,1.35
2022-08-29T16:38:02.155Z,2.15
2022-08-29T16:40:32.285Z,1.88
2022-08-29T16:43:02.781Z,2.33
2022-08-29T16:45:33.524Z,2.47
2022-08-29T16:48:02.568Z,2.05
2022-08-29T16:50:33.237Z,1.65
2022-08-29T16:53:03.299Z,2.50
2022-08-29T16:55:32.212Z,1.65
2022-08-29T16:58:18.169Z,2.15
2022-08-29T17:00:48.141Z,2.25
2022-08-29T17:03:20.092Z,2.35
2022-08-29T17:05:49.449Z,3.08
2022-08-29T17:08:17.317Z,2.17
2022-08-29T17:10:44.945Z,1.98
2022-08-29T17:13:12.702Z,1.83
2022-08-29T17:15:40.594Z,2.00
2022-08-29T17:18:10.469Z,2.42
2022-08-29T17:20:38.988Z,2.10
2022-08-29T17:23:10.149Z,2.40
2022-08-29T17:25:39.526Z,2.58
2022-08-29T17:28:17.797Z,1.55
2022-08-29T17:30:48.784Z,2.70
2022-08-29T17:33:19.806Z,2.45
2022-08-29T17:35:49.223Z,2.78
2022-08-29T17:38:18.656Z,3.75
2022-08-29T17:40:49.121Z,3.97
2022-08-29T17:43:22.076Z,3.60
2022-08-29T17:45:51.482Z,3.35
2022-08-29T17:48:22.871Z,3.25
2022-08-29T17:50:52.223Z,2.40
2022-08-29T17:53:21.894Z,2.40
2022-08-29T17:55:51.252Z,2.30
2022-08-29T17:58:21.784Z,3.58
2022-08-29T18:00:51.724Z,3.33
2022-08-29T18:03:21.668Z,2.40
2022-08-29T18:05:50.054Z,3.00
2022-08-29T18:08:18.657Z,3.17
2022-08-29T18:10:48.127Z,3.15
2022-08-29T18:13:21.034Z,2.67
2022-08-29T18:15:51.549Z,3.17
2022-08-29T18:18:22.662Z,3.15
2022-08-29T18:20:51.052Z,3.42
2022-08-29T18:23:20.063Z,3.58
2022-08-29T18:25:48.914Z,3.85
2022-08-29T18:28:17.499Z,4.05
2022-08-29T18:30:46.139Z,3.20
2022-08-29T18:33:14.922Z,3.70
2022-08-29T18:35:45.063Z,5.80
2022-08-29T18:38:13.660Z,5.25
2022-08-29T18:40:42.909Z,4.63
2022-08-29T18:43:11.825Z,5.07
2022-08-29T18:45:41.527Z,4.32
2022-08-29T18:48:11.339Z,3.42
2022-08-29T18:50:40.787Z,3.78
2022-08-29T18:53:13.890Z,3.15
2022-08-29T18:55:50.493Z,3.63
2022-08-29T18:58:21.520Z,4.20
2022-08-29T19:00:51.106Z,3.53
2022-08-29T19:03:20.300Z,4.05
2022-08-29T19:05:51.991Z,3.65
2022-08-29T19:08:25.195Z,4.03
2022-08-29T19:10:55.619Z,4.43
2022-08-29T19:13:25.303Z,3.70
2022-08-29T19:15:54.364Z,4.50
2022-08-29T19:18:23.564Z,4.18
2022-08-29T19:21:06.397Z,4.22
2022-08-29T19:23:39.518Z,3.85
2022-08-29T19:26:11.816Z,4.65
2022-08-29T19:28:41.035Z,3.90
2022-08-29T19:31:10.589Z,5.47
2022-08-29T19:33:42.677Z,4.40
2022-08-29T19:36:12.051Z,4.68
2022-08-29T19:38:42.823Z,3.47
2022-08-29T19:41:12.545Z,5.18
2022-08-29T19:43:41.948Z,4.25
2022-08-29T19:46:16.510Z,4.43
2022-08-29T19:48:48.441Z,4.50
2022-08-29T19:51:25.070Z,4.75
2022-08-29T19:53:57.136Z,4.13
2022-08-29T19:56:26.802Z,4.57
2022-08-29T19:58:55.588Z,4.32
2022-08-29T20:01:25.859Z,4.85
2022-08-29T20:03:55.094Z,5.32
2022-08-29T20:06:24.715Z,4.65
2022-08-29T20:08:54.702Z,5.20
2022-08-29T20:11:25.966Z,3.72
2022-08-29T20:13:57.824Z,3.38
2022-08-29T20:16:31.008Z,4.07
2022-08-29T20:19:00.552Z,4.00
2022-08-29T20:21:29.578Z,4.35
2022-08-29T20:23:59.438Z,5.03
2022-08-29T20:26:34.334Z,4.70
2022-08-29T20:29:06.574Z,4.35
2022-08-29T20:31:36.081Z,4.63
2022-08-29T20:34:05.657Z,4.65
2022-08-29T20:36:51.279Z,3.08
2022-08-29T20:39:23.083Z,4.53
2022-08-29T20:41:53.743Z,5.50
2022-08-29T20:44:22.599Z,4.82
2022-08-29T20:46:52.131Z,4.38
2022-08-29T20:49:23.170Z,3.97
2022-08-29T20:51:52.498Z,4.07
2022-08-29T20:54:25.359Z,4.45
2022-08-29T20:56:55.368Z,3.67
2022-08-29T20:59:26.636Z,3.05
2022-08-29T21:01:56.443Z,2.97
2022-08-29T21:04:42.538Z,3.47
2022-08-29T21:07:14.230Z,4.85
2022-08-29T21:09:52.004Z,3.67
2022-08-29T21:12:21.608Z,3.63
2022-08-29T21:14:55.920Z,3.70
2022-08-29T21:17:24.382Z,3.97
2022-08-29T21:19:52.796Z,3.67
2022-08-29T21:22:24.829Z,3.30
2022-08-29T21:24:56.232Z,3.70
2022-08-29T21:27:24.715Z,3.30
2022-08-29T21:29:56.753Z,2.97
2022-08-29T21:32:25.207Z,3.45
2022-08-29T21:34:53.613Z,2.83
2022-08-29T21:37:22.166Z,3.67
2022-08-29T21:39:50.555Z,3.40
2022-08-29T21:42:20.390Z,3.30
2022-08-29T21:44:48.841Z,2.92
2022-08-29T21:47:18.151Z,2.92
2022-08-29T21:49:48.509Z,3.10
2022-08-29T21:52:16.952Z,3.67
2022-08-29T21:54:45.769Z,3.00
2022-08-29T21:57:17.401Z,3.97
2022-08-29T21:59:48.396Z,3.55
2022-08-29T22:02:17.558Z,3.70
2022-08-29T22:04:46.149Z,3.25
2022-08-29T22:07:14.535Z,4.15
2022-08-29T22:09:42.948Z,3.10
2022-08-29T22:12:14.203Z,3.30
2022-08-29T22:15:00.131Z,3.50
2022-08-29T22:17:30.276Z,3.20
2022-08-29T22:19:58.727Z,3.10
2022-08-29T22:22:27.201Z,3.13
2022-08-29T22:24:55.804Z,3.13
2022-08-29T22:27:24.219Z,2.53
2022-08-29T22:29:52.610Z,3.30
2022-08-29T22:32:21.104Z,3.63
2022-08-29T22:34:51.562Z,3.40
2022-08-29T22:37:19.974Z,2.75
2022-08-29T22:39:48.308Z,3.40
2022-08-29T22:42:17.416Z,2.90
2022-08-29T22:47:34.130Z,3.53
2022-08-29T22:50:04.849Z,3.03
2022-08-29T22:52:33.298Z,3.78
2022-08-29T22:55:01.764Z,3.35
2022-08-29T22:57:30.246Z,4.30
2022-08-29T22:59:58.614Z,2.83
2022-08-29T23:02:27.228Z,3.38
2022-08-29T23:04:55.839Z,4.05
2022-08-29T23:07:25.644Z,3.10
2022-08-29T23:09:54.122Z,3.78
2022-08-29T23:12:22.483Z,3.38
2022-08-29T23:14:52.297Z,3.20
2022-08-29T23:17:21.083Z,2.85
2022-08-29T23:19:50.069Z,3.72
2022-08-29T23:22:18.653Z,3.33
2022-08-29T23:24:58.408Z,3.42
2022-08-29T23:27:29.158Z,3.15
2022-08-29T23:29:58.921Z,3.22
2022-08-29T23:32:28.264Z,3.15
2022-08-29T23:34:57.114Z,2.88
2022-08-29T23:37:26.378Z,2.85
2022-08-29T23:39:56.260Z,2.83
2022-08-29T23:42:24.878Z,3.05
2022-08-29T23:44:53.323Z,2.85
2022-08-29T23:47:22.101Z,3.67
2022-08-29T23:49:50.473Z,2.65
2022-08-29T23:52:19.117Z,2.53
2022-08-29T23:54:47.539Z,3.85
2022-08-29T23:57:17.407Z,2.78
